createdAt,value
2018-01-22T00:00:23.119Z,1003.95
2018-01-22T00:01:23.142Z,1003.99
2018-01-22T00:02:23.159Z,1003.96
2018-01-22T00:03:23.169Z,1003.95
2018-01-22T00:04:23.185Z,1003.96
2018-01-22T00:05:23.208Z,1003.97
2018-01-22T00:06:23.224Z,1003.93
2018-01-22T00:07:23.236Z,1003.92
2018-01-22T00:08:23.264Z,1003.93
2018-01-22T00:09:23.275Z,1003.88
2018-01-22T00:10:23.292Z,1003.89
2018-01-22T00:11:23.303Z,1003.84
2018-01-22T00:12:23.321Z,1003.88
2018-01-22T00:13:23.341Z,1003.87
2018-01-22T00:14:23.353Z,1003.84
2018-01-22T00:15:23.370Z,1003.79
2018-01-22T00:16:23.387Z,1003.78
2018-01-22T00:17:23.408Z,1003.82
2018-01-22T00:18:23.426Z,1003.78
2018-01-22T00:19:23.436Z,1003.75
2018-01-22T00:20:23.455Z,1003.68
2018-01-22T00:21:23.476Z,1003.63
2018-01-22T00:22:23.494Z,1003.65
2018-01-22T00:23:23.503Z,1003.49
2018-01-22T00:24:23.521Z,1003.41
2018-01-22T00:25:23.537Z,1003.34
2018-01-22T00:26:23.561Z,1003.19
2018-01-22T00:27:23.571Z,1003.26
2018-01-22T00:28:23.593Z,1003.18
2018-01-22T00:29:23.604Z,1003.15
2018-01-22T00:30:23.622Z,1003.14
2018-01-22T00:31:23.637Z,1003.16
2018-01-22T00:32:23.661Z,1003.10
2018-01-22T00:33:23.671Z,1003.09
2018-01-22T00:34:23.695Z,1003.02
2018-01-22T00:35:23.704Z,1003.04
2018-01-22T00:36:23.726Z,1002.97
2018-01-22T00:37:23.739Z,1003.01
2018-01-22T00:38:23.761Z,1002.96
2018-01-22T00:39:23.771Z,1002.92
2018-01-22T00:40:23.795Z,1002.90
2018-01-22T00:41:23.805Z,1002.88
2018-01-22T00:42:23.829Z,1002.84
2018-01-22T00:43:23.840Z,1002.84
2018-01-22T00:44:23.860Z,1002.82
2018-01-22T00:45:23.872Z,1002.78
2018-01-22T00:46:23.894Z,1002.71
2018-01-22T00:47:23.905Z,1002.66
2018-01-22T00:48:23.922Z,1002.61
2018-01-22T00:49:23.945Z,1002.62
2018-01-22T00:50:23.962Z,1002.63
2018-01-22T00:51:23.972Z,1002.69
2018-01-22T00:52:23.989Z,1002.61
2018-01-22T00:53:24.012Z,1002.60
2018-01-22T00:54:24.029Z,1002.56
2018-01-22T00:55:24.039Z,1002.54
2018-01-22T00:56:24.056Z,1002.50
2018-01-22T00:57:24.078Z,1002.47
2018-01-22T00:58:24.096Z,1002.43
2018-01-22T00:59:24.107Z,1002.37
2018-01-22T01:00:24.122Z,1002.37
2018-01-22T01:01:24.144Z,1002.35
2018-01-22T01:02:24.161Z,1002.30
2018-01-22T01:03:24.173Z,1002.28
2018-01-22T01:04:24.195Z,1002.12
2018-01-22T01:05:24.206Z,1002.08
2018-01-22T01:06:24.224Z,1002.09
2018-01-22T01:07:24.245Z,1002.02
2018-01-22T01:08:24.262Z,1001.96
2018-01-22T01:09:24.273Z,1001.99
2018-01-22T01:10:24.289Z,1001.95
2018-01-22T01:11:24.310Z,1001.94
2018-01-22T01:12:24.322Z,1001.91
2018-01-22T01:13:24.343Z,1001.90
2018-01-22T01:14:24.363Z,1001.89
2018-01-22T01:15:24.371Z,1001.84
2018-01-22T01:16:24.388Z,1001.85
2018-01-22T01:17:24.412Z,1001.78
2018-01-22T01:18:24.428Z,1001.84
2018-01-22T01:19:24.438Z,1001.85
2018-01-22T01:20:24.456Z,1001.79
2018-01-22T01:21:24.478Z,1001.88
2018-01-22T01:22:24.490Z,1001.86
2018-01-22T01:23:24.511Z,1001.95
2018-01-22T01:24:24.522Z,1002.01
2018-01-22T01:25:24.546Z,1002.00
2018-01-22T01:26:24.555Z,1002.02
2018-01-22T01:27:24.578Z,1001.91
2018-01-22T01:28:24.588Z,1001.81
2018-01-22T01:29:24.611Z,1001.77
2018-01-22T01:30:24.622Z,1001.72
2018-01-22T01:31:24.644Z,1001.76
2018-01-22T01:32:24.655Z,1001.76
2018-01-22T01:33:24.676Z,1001.75
2018-01-22T01:34:24.688Z,1001.80
2018-01-22T01:35:24.710Z,1001.71
2018-01-22T01:36:24.727Z,1001.78
2018-01-22T01:37:24.737Z,1001.72
2018-01-22T01:38:24.761Z,1001.73
2018-01-22T01:39:24.771Z,1001.61
2018-01-22T01:40:24.794Z,1001.62
2018-01-22T01:41:24.804Z,1001.61
2018-01-22T01:42:24.827Z,1001.60
2018-01-22T01:43:24.836Z,1001.61
2018-01-22T01:44:24.859Z,1001.59
2018-01-22T01:45:24.871Z,1001.61
2018-01-22T01:46:24.892Z,1001.61
2018-01-22T01:47:24.903Z,1001.60
2018-01-22T01:48:24.926Z,1001.55
2018-01-22T01:49:24.937Z,1001.53
2018-01-22T01:50:24.960Z,1001.57
2018-01-22T01:51:24.970Z,1001.46
2018-01-22T01:52:24.992Z,1001.43
2018-01-22T01:53:25.005Z,1001.45
2018-01-22T01:54:25.027Z,1001.40
2018-01-22T01:55:25.037Z,1001.46
2018-01-22T01:56:25.060Z,1001.43
2018-01-22T01:57:25.071Z,1001.41
2018-01-22T01:58:25.092Z,1001.43
2018-01-22T01:59:25.104Z,1001.38
2018-01-22T02:00:25.120Z,1001.35
2018-01-22T02:01:25.144Z,1001.28
2018-01-22T02:02:25.159Z,1001.24
2018-01-22T02:03:25.171Z,1001.19
2018-01-22T02:04:25.190Z,1001.18
2018-01-22T02:05:25.209Z,1001.11
2018-01-22T02:06:25.226Z,1001.00
2018-01-22T02:07:25.236Z,1000.93
2018-01-22T02:08:25.261Z,1000.94
2018-01-22T02:09:25.275Z,1000.89
2018-01-22T02:10:25.292Z,1000.88
2018-01-22T02:11:25.303Z,1000.78
2018-01-22T02:12:25.321Z,1000.73
2018-01-22T02:13:25.343Z,1000.80
2018-01-22T02:14:25.360Z,1000.74
2018-01-22T02:15:25.372Z,1000.72
2018-01-22T02:16:25.386Z,1000.73
2018-01-22T02:17:25.409Z,1000.72
2018-01-22T02:18:25.426Z,1000.69
2018-01-22T02:19:25.436Z,1000.68
2018-01-22T02:20:25.453Z,1000.71
2018-01-22T02:21:25.475Z,1000.73
2018-01-22T02:22:25.492Z,1000.73
2018-01-22T02:23:25.502Z,1000.66
2018-01-22T02:24:25.519Z,1000.74
2018-01-22T02:25:25.542Z,1000.65
2018-01-22T02:26:25.558Z,1000.68
2018-01-22T02:27:25.568Z,1000.67
2018-01-22T02:28:25.585Z,1000.64
2018-01-22T02:29:25.607Z,1000.64
2018-01-22T02:30:25.624Z,1000.60
2018-01-22T02:31:25.635Z,1000.63
2018-01-22T02:32:25.651Z,1000.59
2018-01-22T02:33:25.674Z,1000.59
2018-01-22T02:34:25.686Z,1000.53
2018-01-22T02:35:25.706Z,1000.51
2018-01-22T02:36:25.719Z,1000.51
2018-01-22T02:37:25.740Z,1000.50
2018-01-22T02:38:25.752Z,1000.40
2018-01-22T02:39:25.773Z,1000.43
2018-01-22T02:40:25.786Z,1000.45
2018-01-22T02:41:25.808Z,1000.39
2018-01-22T02:42:25.818Z,1000.33
2018-01-22T02:43:25.839Z,1000.28
2018-01-22T02:44:25.851Z,1000.28
2018-01-22T02:45:25.874Z,1000.28
2018-01-22T02:46:25.899Z,1000.28
2018-01-22T02:47:25.907Z,1000.20
2018-01-22T02:48:25.923Z,1000.18
2018-01-22T02:49:25.934Z,1000.20
2018-01-22T02:50:25.951Z,1000.19
2018-01-22T02:51:25.966Z,1000.19
2018-01-22T02:52:25.989Z,1000.22
2018-01-22T02:53:26.009Z,1000.17
2018-01-22T02:54:26.018Z,1000.14
2018-01-22T02:55:26.038Z,1000.10
2018-01-22T02:56:26.056Z,1000.05
2018-01-22T02:57:26.071Z,999.99
2018-01-22T02:58:26.089Z,1000.02
2018-01-22T02:59:26.099Z,999.87
2018-01-22T03:00:26.115Z,999.83
2018-01-22T03:01:26.138Z,999.76
2018-01-22T03:02:26.157Z,999.67
2018-01-22T03:03:26.164Z,999.64
2018-01-22T03:04:26.182Z,999.60
2018-01-22T03:05:26.197Z,999.60
2018-01-22T03:06:26.215Z,999.49
2018-01-22T03:07:26.230Z,999.42
2018-01-22T03:08:26.253Z,999.40
2018-01-22T03:09:26.264Z,999.41
2018-01-22T03:10:26.280Z,999.46
2018-01-22T03:11:26.302Z,999.53
2018-01-22T03:12:26.317Z,999.57
2018-01-22T03:13:26.330Z,999.57
2018-01-22T03:14:26.352Z,999.56
2018-01-22T03:15:26.361Z,999.59
2018-01-22T03:16:26.384Z,999.59
2018-01-22T03:17:26.396Z,999.60
2018-01-22T03:18:26.418Z,999.53
2018-01-22T03:19:26.426Z,999.49
2018-01-22T03:20:26.449Z,999.50
2018-01-22T03:21:26.466Z,999.48
2018-01-22T03:22:26.477Z,999.46
2018-01-22T03:23:26.499Z,999.43
2018-01-22T03:24:26.510Z,999.41
2018-01-22T03:25:26.533Z,999.40
2018-01-22T03:26:26.549Z,999.32
2018-01-22T03:27:26.564Z,999.36
2018-01-22T03:28:26.576Z,999.36
2018-01-22T03:29:26.599Z,999.37
2018-01-22T03:30:26.610Z,999.35
2018-01-22T03:31:26.631Z,999.27
2018-01-22T03:32:26.641Z,999.29
2018-01-22T03:33:26.664Z,999.27
2018-01-22T03:34:26.674Z,999.25
2018-01-22T03:35:26.696Z,999.25
2018-01-22T03:36:26.713Z,999.22
2018-01-22T03:37:26.731Z,999.28
2018-01-22T03:38:26.748Z,999.28
2018-01-22T03:39:26.757Z,999.28
2018-01-22T03:40:26.774Z,999.26
2018-01-22T03:41:26.795Z,999.18
2018-01-22T03:42:26.806Z,999.17
2018-01-22T03:43:26.832Z,999.20
2018-01-22T03:44:26.839Z,999.22
2018-01-22T03:45:26.861Z,999.18
2018-01-22T03:46:26.880Z,999.21
2018-01-22T03:47:26.890Z,999.28
2018-01-22T03:48:26.905Z,999.16
2018-01-22T03:49:26.927Z,999.21
2018-01-22T03:50:26.944Z,999.22
2018-01-22T03:51:26.960Z,999.16
2018-01-22T03:52:26.979Z,999.08
2018-01-22T03:53:26.992Z,999.10
2018-01-22T03:54:27.006Z,999.11
2018-01-22T03:55:27.020Z,999.10
2018-01-22T03:56:27.036Z,999.05
2018-01-22T03:57:27.058Z,999.03
2018-01-22T03:58:27.073Z,999.06
2018-01-22T03:59:27.090Z,999.00
2018-01-22T04:00:27.107Z,999.03
2018-01-22T04:01:27.118Z,999.10
2018-01-22T04:02:27.141Z,999.07
2018-01-22T04:03:27.156Z,999.09
2018-01-22T04:04:27.174Z,999.06
2018-01-22T04:05:27.184Z,999.10
2018-01-22T04:06:27.206Z,999.08
2018-01-22T04:07:27.216Z,999.11
2018-01-22T04:08:27.232Z,999.13
2018-01-22T04:09:27.249Z,999.14
2018-01-22T04:10:27.271Z,999.12
2018-01-22T04:11:27.281Z,999.18
2018-01-22T04:12:27.307Z,999.13
2018-01-22T04:13:27.315Z,999.18
2018-01-22T04:14:27.332Z,999.23
2018-01-22T04:15:27.347Z,999.22
2018-01-22T04:16:27.364Z,999.22
2018-01-22T04:17:27.390Z,999.21
2018-01-22T04:18:27.397Z,999.19
2018-01-22T04:19:27.419Z,999.27
2018-01-22T04:20:27.430Z,999.29
2018-01-22T04:21:27.452Z,999.32
2018-01-22T04:22:27.463Z,999.29
2018-01-22T04:23:27.490Z,999.31
2018-01-22T04:24:27.502Z,999.23
2018-01-22T04:25:27.518Z,999.20
2018-01-22T04:26:27.530Z,999.17
2018-01-22T04:27:27.551Z,999.10
2018-01-22T04:28:27.562Z,999.05
2018-01-22T04:29:27.585Z,999.01
2018-01-22T04:30:27.601Z,998.95
2018-01-22T04:31:27.617Z,998.92
2018-01-22T04:32:27.629Z,998.94
2018-01-22T04:33:27.656Z,998.91
2018-01-22T04:34:27.667Z,998.96
2018-01-22T04:35:27.677Z,998.94
2018-01-22T04:36:27.696Z,998.91
2018-01-22T04:37:27.715Z,998.90
2018-01-22T04:38:27.733Z,998.96
2018-01-22T04:39:27.743Z,998.86
2018-01-22T04:40:27.768Z,998.95
2018-01-22T04:41:27.783Z,998.83
2018-01-22T04:42:27.812Z,998.83
2018-01-22T04:43:27.809Z,998.79
2018-01-22T04:44:27.826Z,998.77
2018-01-22T04:45:27.849Z,998.78
2018-01-22T04:46:27.861Z,998.75
2018-01-22T04:47:27.877Z,998.68
2018-01-22T04:48:27.923Z,998.68
2018-01-22T04:49:27.909Z,998.72
2018-01-22T04:50:27.926Z,998.64
2018-01-22T04:51:27.948Z,998.60
2018-01-22T04:52:27.964Z,998.62
2018-01-22T04:53:27.975Z,998.60
2018-01-22T04:54:27.992Z,998.62
2018-01-22T04:55:28.013Z,998.59
2018-01-22T04:56:28.024Z,998.60
2018-01-22T04:57:28.047Z,998.59
2018-01-22T04:58:28.065Z,998.53
2018-01-22T04:59:28.074Z,998.53
2018-01-22T05:00:28.091Z,998.52
2018-01-22T05:01:28.113Z,998.49
2018-01-22T05:02:28.129Z,998.46
2018-01-22T05:03:28.140Z,998.44
2018-01-22T05:04:28.157Z,998.42
2018-01-22T05:05:28.179Z,998.38
2018-01-22T05:06:28.196Z,998.35
2018-01-22T05:07:28.206Z,998.33
2018-01-22T05:08:28.223Z,998.34
2018-01-22T05:09:28.246Z,998.31
2018-01-22T05:10:28.262Z,998.33
2018-01-22T05:11:28.272Z,998.27
2018-01-22T05:12:28.290Z,998.21
2018-01-22T05:13:28.311Z,998.16
2018-01-22T05:14:28.322Z,998.09
2018-01-22T05:15:28.344Z,998.08
2018-01-22T05:16:28.355Z,998.07
2018-01-22T05:17:28.376Z,998.00
2018-01-22T05:18:28.391Z,998.00
2018-01-22T05:19:28.410Z,997.93
2018-01-22T05:20:28.422Z,997.97
2018-01-22T05:21:28.444Z,997.90
2018-01-22T05:22:28.454Z,997.91
2018-01-22T05:23:28.476Z,997.86
2018-01-22T05:24:28.488Z,997.93
2018-01-22T05:25:28.535Z,997.90
2018-01-22T05:26:28.520Z,997.93
2018-01-22T05:27:28.542Z,997.89
2018-01-22T05:28:28.559Z,997.89
2018-01-22T05:29:28.571Z,997.86
2018-01-22T05:30:28.592Z,997.83
2018-01-22T05:31:28.602Z,997.79
2018-01-22T05:32:28.626Z,997.75
2018-01-22T05:33:28.635Z,997.77
2018-01-22T05:34:28.657Z,997.78
2018-01-22T05:35:28.668Z,997.80
2018-01-22T05:36:28.690Z,997.73
2018-01-22T05:37:28.702Z,997.76
2018-01-22T05:38:28.725Z,997.78
2018-01-22T05:39:28.736Z,997.73
2018-01-22T05:40:28.756Z,997.69
2018-01-22T05:41:28.769Z,997.67
2018-01-22T05:42:28.792Z,997.70
2018-01-22T05:43:28.801Z,997.72
2018-01-22T05:44:28.820Z,997.79
2018-01-22T05:45:28.844Z,997.77
2018-01-22T05:46:28.856Z,997.76
2018-01-22T05:47:28.867Z,997.79
2018-01-22T05:48:28.884Z,997.71
2018-01-22T05:49:28.907Z,997.73
2018-01-22T05:50:28.923Z,997.75
2018-01-22T05:51:28.935Z,997.75
2018-01-22T05:52:28.950Z,997.76
2018-01-22T05:53:28.973Z,997.76
2018-01-22T05:54:28.989Z,997.72
2018-01-22T05:55:29.000Z,997.70
2018-01-22T05:56:29.018Z,997.74
2018-01-22T05:57:29.040Z,997.72
2018-01-22T05:58:29.056Z,997.75
2018-01-22T05:59:29.068Z,997.78
2018-01-22T06:00:29.083Z,997.81
2018-01-22T06:01:29.106Z,997.77
2018-01-22T06:02:29.126Z,997.76
2018-01-22T06:03:29.133Z,997.73
2018-01-22T06:04:29.150Z,997.71
2018-01-22T06:05:29.173Z,997.71
2018-01-22T06:06:29.190Z,997.77
2018-01-22T06:07:29.200Z,997.75
2018-01-22T06:08:29.217Z,997.75
2018-01-22T06:09:29.239Z,997.70
2018-01-22T06:10:29.249Z,997.73
2018-01-22T06:11:29.274Z,997.74
2018-01-22T06:12:29.284Z,997.75
2018-01-22T06:13:29.306Z,997.74
2018-01-22T06:14:29.320Z,997.73
2018-01-22T06:15:29.353Z,997.72
2018-01-22T06:16:29.351Z,997.74
2018-01-22T06:17:29.373Z,997.73
2018-01-22T06:18:29.384Z,997.73
2018-01-22T06:19:29.407Z,997.75
2018-01-22T06:20:29.416Z,997.75
2018-01-22T06:21:29.439Z,997.73
2018-01-22T06:22:29.452Z,997.72
2018-01-22T06:23:29.474Z,997.69
2018-01-22T06:24:29.490Z,997.72
2018-01-22T06:25:29.502Z,997.77
2018-01-22T06:26:29.523Z,997.75
2018-01-22T06:27:29.535Z,997.75
2018-01-22T06:28:29.557Z,997.77
2018-01-22T06:29:29.568Z,997.77
2018-01-22T06:30:29.591Z,997.78
2018-01-22T06:31:29.601Z,997.72
2018-01-22T06:32:29.623Z,997.69
2018-01-22T06:33:29.637Z,997.67
2018-01-22T06:34:29.659Z,997.70
2018-01-22T06:35:29.669Z,997.71
2018-01-22T06:36:29.691Z,997.77
2018-01-22T06:37:29.703Z,997.77
2018-01-22T06:38:29.726Z,997.81
2018-01-22T06:39:29.736Z,997.79
2018-01-22T06:40:29.755Z,997.79
2018-01-22T06:41:29.776Z,997.78
2018-01-22T06:42:29.794Z,997.74
2018-01-22T06:43:29.804Z,997.70
2018-01-22T06:44:29.820Z,997.69
2018-01-22T06:45:29.843Z,997.71
2018-01-22T06:46:29.860Z,997.67
2018-01-22T06:47:29.871Z,997.68
2018-01-22T06:48:29.888Z,997.70
2018-01-22T06:49:29.911Z,997.69
2018-01-22T06:50:29.928Z,997.66
2018-01-22T06:51:29.939Z,997.65
2018-01-22T06:52:29.955Z,997.71
2018-01-22T06:53:29.979Z,997.72
2018-01-22T06:54:29.999Z,997.73
2018-01-22T06:55:30.007Z,997.74
2018-01-22T06:56:30.032Z,997.74
2018-01-22T06:57:30.041Z,997.74
2018-01-22T06:58:30.059Z,997.82
2018-01-22T06:59:30.080Z,997.72
2018-01-22T07:00:30.097Z,997.79
2018-01-22T07:01:30.108Z,997.79
2018-01-22T07:02:30.126Z,997.84
2018-01-22T07:03:30.149Z,997.85
2018-01-22T07:04:30.159Z,997.83
2018-01-22T07:05:30.185Z,997.84
2018-01-22T07:06:30.200Z,997.85
2018-01-22T07:07:30.210Z,997.88
2018-01-22T07:08:30.227Z,997.90
2018-01-22T07:09:30.251Z,997.92
2018-01-22T07:10:30.312Z,997.87
2018-01-22T07:11:30.278Z,997.93
2018-01-22T07:12:30.301Z,997.90
2018-01-22T07:13:30.313Z,997.86
2018-01-22T07:14:30.336Z,997.91
2018-01-22T07:15:30.352Z,997.86
2018-01-22T07:16:30.370Z,997.91
2018-01-22T07:17:30.393Z,997.85
2018-01-22T07:18:30.405Z,997.92
2018-01-22T07:19:30.414Z,997.92
2018-01-22T07:20:30.436Z,997.93
2018-01-22T07:21:30.449Z,997.88
2018-01-22T07:22:30.466Z,997.92
2018-01-22T07:23:30.488Z,997.88
2018-01-22T07:24:30.506Z,997.82
2018-01-22T07:25:30.521Z,997.85
2018-01-22T07:26:30.535Z,997.90
2018-01-22T07:27:30.556Z,997.90
2018-01-22T07:28:30.575Z,997.84
2018-01-22T07:29:30.585Z,997.84
2018-01-22T07:30:30.603Z,997.88
2018-01-22T07:31:30.620Z,997.83
2018-01-22T07:32:30.643Z,997.81
2018-01-22T07:33:30.661Z,997.82
2018-01-22T07:34:30.672Z,997.82
2018-01-22T07:35:30.695Z,997.77
2018-01-22T07:36:30.712Z,997.80
2018-01-22T07:37:30.726Z,997.75
2018-01-22T07:38:30.747Z,997.76
2018-01-22T07:39:30.758Z,997.72
2018-01-22T07:40:30.781Z,997.78
2018-01-22T07:41:30.792Z,997.78
2018-01-22T07:42:30.815Z,997.76
2018-01-22T07:43:30.827Z,997.75
2018-01-22T07:44:30.849Z,997.73
2018-01-22T07:45:30.861Z,997.75
2018-01-22T07:46:30.885Z,997.72
2018-01-22T07:47:30.896Z,997.71
2018-01-22T07:48:30.964Z,997.73
2018-01-22T07:49:30.936Z,997.73
2018-01-22T07:50:30.948Z,997.74
2018-01-22T07:51:30.965Z,997.80
2018-01-22T07:52:30.982Z,997.72
2018-01-22T07:53:31.005Z,997.75
2018-01-22T07:54:31.018Z,997.81
2018-01-22T07:55:31.040Z,997.82
2018-01-22T07:56:31.051Z,997.84
2018-01-22T07:57:31.125Z,997.84
2018-01-22T07:58:31.086Z,997.88
2018-01-22T07:59:31.140Z,997.89
2018-01-22T08:00:31.121Z,997.87
2018-01-22T08:01:31.139Z,997.88
2018-01-22T08:02:31.162Z,997.92
2018-01-22T08:03:31.173Z,997.95
2018-01-22T08:04:31.203Z,997.97
2018-01-22T08:05:31.207Z,997.98
2018-01-22T08:06:31.225Z,998.05
2018-01-22T08:07:31.243Z,998.03
2018-01-22T08:08:31.259Z,998.03
2018-01-22T08:09:31.283Z,998.07
2018-01-22T08:10:31.295Z,998.09
2018-01-22T08:11:31.317Z,998.09
2018-01-22T08:12:31.334Z,998.07
2018-01-22T08:13:31.351Z,998.18
2018-01-22T08:14:31.364Z,998.13
2018-01-22T08:15:31.388Z,998.08
2018-01-22T08:16:31.404Z,998.11
2018-01-22T08:17:31.416Z,998.09
2018-01-22T08:18:31.438Z,998.11
2018-01-22T08:19:31.456Z,998.15
2018-01-22T08:20:31.473Z,998.18
2018-01-22T08:21:31.492Z,998.11
2018-01-22T08:22:31.507Z,998.08
2018-01-22T08:23:31.524Z,998.02
2018-01-22T08:24:31.537Z,998.01
2018-01-22T08:25:31.561Z,998.02
2018-01-22T08:26:31.612Z,997.97
2018-01-22T08:27:31.590Z,998.03
2018-01-22T08:28:31.612Z,997.99
2018-01-22T08:29:31.632Z,997.97
2018-01-22T08:30:31.649Z,997.96
2018-01-22T08:31:31.660Z,997.97
2018-01-22T08:32:31.683Z,997.92
2018-01-22T08:33:31.695Z,997.95
2018-01-22T08:34:31.713Z,997.96
2018-01-22T08:35:31.730Z,997.95
2018-01-22T08:36:31.754Z,997.94
2018-01-22T08:37:31.771Z,997.91
2018-01-22T08:38:31.784Z,997.91
2018-01-22T08:39:31.806Z,997.93
2018-01-22T08:40:31.818Z,997.89
2018-01-22T08:41:31.843Z,997.91
2018-01-22T08:42:31.860Z,997.95
2018-01-22T08:43:31.872Z,997.90
2018-01-22T08:44:31.893Z,997.86
2018-01-22T08:45:31.913Z,997.86
2018-01-22T08:46:31.930Z,997.81
2018-01-22T08:47:31.943Z,997.82
2018-01-22T08:48:31.965Z,997.81
2018-01-22T08:49:31.979Z,997.86
2018-01-22T08:50:31.995Z,997.85
2018-01-22T08:51:32.012Z,997.91
2018-01-22T08:52:32.037Z,997.96
2018-01-22T08:53:32.053Z,998.03
2018-01-22T08:54:32.068Z,997.96
2018-01-22T08:55:32.088Z,997.98
2018-01-22T08:56:32.107Z,997.98
2018-01-22T08:57:32.119Z,997.94
2018-01-22T08:58:32.143Z,997.99
2018-01-22T08:59:32.155Z,997.97
2018-01-22T09:00:32.178Z,998.01
2018-01-22T09:01:32.190Z,998.02
2018-01-22T09:02:32.214Z,998.07
2018-01-22T09:03:32.226Z,998.05
2018-01-22T09:04:32.243Z,998.07
2018-01-22T09:05:32.266Z,998.09
2018-01-22T09:06:32.287Z,998.10
2018-01-22T09:07:32.302Z,998.14
2018-01-22T09:08:32.317Z,998.14
2018-01-22T09:09:32.337Z,998.22
2018-01-22T09:10:32.352Z,998.19
2018-01-22T09:11:32.369Z,998.21
2018-01-22T09:12:32.386Z,998.26
2018-01-22T09:13:32.411Z,998.26
2018-01-22T09:14:32.430Z,998.20
2018-01-22T09:15:32.441Z,998.20
2018-01-22T09:16:32.464Z,998.19
2018-01-22T09:17:32.484Z,998.21
2018-01-22T09:18:32.505Z,998.22
2018-01-22T09:19:32.514Z,998.19
2018-01-22T09:20:32.537Z,998.20
2018-01-22T09:21:32.550Z,998.20
2018-01-22T09:22:32.574Z,998.17
2018-01-22T09:23:32.585Z,998.13
2018-01-22T09:24:32.611Z,998.13
2018-01-22T09:25:32.622Z,998.08
2018-01-22T09:26:32.648Z,998.14
2018-01-22T09:27:32.666Z,998.16
2018-01-22T09:28:32.681Z,998.20
2018-01-22T09:29:32.695Z,998.17
2018-01-22T09:30:32.713Z,998.18
2018-01-22T09:31:32.735Z,998.22
2018-01-22T09:32:32.755Z,998.17
2018-01-22T09:33:32.766Z,998.23
2018-01-22T09:34:32.785Z,998.15
2018-01-22T09:35:32.808Z,998.18
2018-01-22T09:36:32.822Z,998.18
2018-01-22T09:37:32.845Z,998.18
2018-01-22T09:38:32.863Z,998.27
2018-01-22T09:39:32.875Z,998.26
2018-01-22T09:40:32.894Z,998.23
2018-01-22T09:41:32.917Z,998.25
2018-01-22T09:42:32.936Z,998.24
2018-01-22T09:43:32.947Z,998.28
2018-01-22T09:44:32.965Z,998.31
2018-01-22T09:45:32.992Z,998.27
2018-01-22T09:46:33.003Z,998.28
2018-01-22T09:47:33.026Z,998.32
2018-01-22T09:48:33.038Z,998.34
2018-01-22T09:49:33.063Z,998.35
2018-01-22T09:50:33.075Z,998.41
2018-01-22T09:51:33.099Z,998.41
2018-01-22T09:52:33.111Z,998.50
2018-01-22T09:53:33.136Z,998.50
2018-01-22T09:54:33.154Z,998.52
2018-01-22T09:55:33.166Z,998.43
2018-01-22T09:56:33.192Z,998.51
2018-01-22T09:57:33.208Z,998.44
2018-01-22T09:58:33.226Z,998.52
2018-01-22T09:59:33.240Z,998.47
2018-01-22T10:00:33.262Z,998.50
2018-01-22T10:01:33.276Z,998.47
2018-01-22T10:02:33.300Z,998.46
2018-01-22T10:03:33.312Z,998.48
2018-01-22T10:04:33.341Z,998.50
2018-01-22T10:05:33.350Z,998.53
2018-01-22T10:06:33.375Z,998.52
2018-01-22T10:07:33.387Z,998.54
2018-01-22T10:08:33.404Z,998.58
2018-01-22T10:09:33.430Z,998.55
2018-01-22T10:10:33.443Z,998.59
2018-01-22T10:11:33.466Z,998.63
2018-01-22T10:12:33.478Z,998.64
2018-01-22T10:13:33.505Z,998.62
2018-01-22T10:14:33.519Z,998.66
2018-01-22T10:15:33.539Z,998.58
2018-01-22T10:16:33.564Z,998.60
2018-01-22T10:17:33.571Z,998.61
2018-01-22T10:18:33.596Z,998.66
2018-01-22T10:19:33.609Z,998.64
2018-01-22T10:20:33.633Z,998.62
2018-01-22T10:21:33.645Z,998.63
2018-01-22T10:22:33.671Z,998.60
2018-01-22T10:23:33.687Z,998.67
2018-01-22T10:24:33.708Z,998.67
2018-01-22T10:25:33.721Z,998.69
2018-01-22T10:26:33.746Z,998.68
2018-01-22T10:27:33.757Z,998.64
2018-01-22T10:28:33.782Z,998.65
2018-01-22T10:29:33.795Z,998.68
2018-01-22T10:30:33.820Z,998.66
2018-01-22T10:31:33.833Z,998.72
2018-01-22T10:32:33.850Z,998.69
2018-01-22T10:33:33.875Z,998.68
2018-01-22T10:34:33.894Z,998.64
2018-01-22T10:35:33.907Z,998.66
2018-01-22T10:36:33.925Z,998.72
2018-01-22T10:37:33.949Z,998.68
2018-01-22T10:38:33.969Z,998.76
2018-01-22T10:39:33.981Z,998.76
2018-01-22T10:40:34.001Z,998.74
2018-01-22T10:41:34.026Z,998.71
2018-01-22T10:42:34.049Z,998.73
2018-01-22T10:43:34.057Z,998.78
2018-01-22T10:44:34.075Z,998.83
2018-01-22T10:45:34.100Z,998.80
2018-01-22T10:46:34.120Z,998.78
2018-01-22T10:47:34.134Z,998.72
2018-01-22T10:48:34.150Z,998.75
2018-01-22T10:49:34.179Z,998.72
2018-01-22T10:50:34.195Z,998.68
2018-01-22T10:51:34.208Z,998.68
2018-01-22T10:52:34.226Z,998.72
2018-01-22T10:53:34.250Z,998.69
2018-01-22T10:54:34.272Z,998.75
2018-01-22T10:55:34.284Z,998.67
2018-01-22T10:56:34.305Z,998.75
2018-01-22T10:57:34.327Z,998.81
2018-01-22T10:58:34.347Z,998.81
2018-01-22T10:59:34.359Z,998.83
2018-01-22T11:00:34.378Z,998.84
2018-01-22T11:01:34.403Z,998.88
2018-01-22T11:02:34.422Z,998.88
2018-01-22T11:03:34.435Z,998.85
2018-01-22T11:04:34.454Z,998.91
2018-01-22T11:05:34.479Z,998.92
2018-01-22T11:06:34.494Z,998.93
2018-01-22T11:07:34.516Z,998.89
2018-01-22T11:08:34.531Z,999.00
2018-01-22T11:09:34.556Z,999.03
2018-01-22T11:10:34.571Z,998.95
2018-01-22T11:11:34.595Z,999.00
2018-01-22T11:12:34.607Z,999.04
2018-01-22T11:13:34.680Z,998.96
2018-01-22T11:14:34.645Z,998.98
2018-01-22T11:15:34.671Z,998.96
2018-01-22T11:16:34.686Z,998.95
2018-01-22T11:17:34.710Z,999.00
2018-01-22T11:18:34.723Z,998.95
2018-01-22T11:19:34.749Z,999.04
2018-01-22T11:20:34.767Z,999.05
2018-01-22T11:21:34.786Z,999.03
2018-01-22T11:22:34.806Z,999.03
2018-01-22T11:23:34.818Z,999.07
2018-01-22T11:24:34.839Z,999.04
2018-01-22T11:25:34.864Z,999.04
2018-01-22T11:26:34.883Z,999.09
2018-01-22T11:27:34.895Z,999.02
2018-01-22T11:28:34.922Z,999.05
2018-01-22T11:29:34.936Z,999.06
2018-01-22T11:30:34.955Z,999.07
2018-01-22T11:31:34.973Z,999.00
2018-01-22T11:32:34.999Z,999.04
2018-01-22T11:33:35.019Z,999.07
2018-01-22T11:34:35.032Z,999.02
2018-01-22T11:35:35.056Z,999.08
2018-01-22T11:36:35.076Z,999.07
2018-01-22T11:37:35.091Z,999.03
2018-01-22T11:38:35.116Z,999.09
2018-01-22T11:39:35.127Z,999.06
2018-01-22T11:40:35.153Z,999.09
2018-01-22T11:41:35.169Z,999.06
2018-01-22T11:42:35.193Z,999.07
2018-01-22T11:43:35.206Z,999.06
2018-01-22T11:44:35.226Z,999.08
2018-01-22T11:45:35.251Z,999.03
2018-01-22T11:46:35.264Z,999.08
2018-01-22T11:47:35.284Z,999.09
2018-01-22T11:48:35.304Z,999.09
2018-01-22T11:49:35.323Z,999.09
2018-01-22T11:50:35.343Z,999.08
2018-01-22T11:51:35.367Z,999.07
2018-01-22T11:52:35.386Z,999.06
2018-01-22T11:53:35.407Z,999.05
2018-01-22T11:54:35.421Z,999.14
2018-01-22T11:55:35.445Z,999.14
2018-01-22T11:56:35.459Z,999.13
2018-01-22T11:57:35.484Z,999.21
2018-01-22T11:58:35.502Z,999.18
2018-01-22T11:59:35.522Z,999.14
2018-01-22T12:00:35.543Z,999.19
2018-01-22T12:01:35.607Z,999.19
2018-01-22T12:02:35.582Z,999.21
2018-01-22T12:03:35.606Z,999.22
2018-01-22T12:04:35.620Z,999.25
2018-01-22T12:05:35.638Z,999.27
2018-01-22T12:06:35.660Z,999.25
2018-01-22T12:07:35.674Z,999.23
2018-01-22T12:08:35.692Z,999.26
2018-01-22T12:09:35.718Z,999.29
2018-01-22T12:10:35.738Z,999.27
2018-01-22T12:11:35.750Z,999.36
2018-01-22T12:12:35.773Z,999.27
2018-01-22T12:13:35.795Z,999.34
2018-01-22T12:14:35.816Z,999.36
2018-01-22T12:15:35.829Z,999.36
2018-01-22T12:16:35.855Z,999.41
2018-01-22T12:17:35.868Z,999.47
2018-01-22T12:18:35.889Z,999.48
2018-01-22T12:19:35.908Z,999.42
2018-01-22T12:20:35.932Z,999.38
2018-01-22T12:21:35.953Z,999.35
2018-01-22T12:22:35.968Z,999.35